sensor_id;sensor_type;location;lat;lon;timestamp;pressure;altitude;pressure_sealevel;temperature;humidity
40245;BME280;25963;42.694;23.600;2023-06-19T00:01:08;95256.16;;;16.25;100.00
40245;BME280;25963;42.694;23.600;2023-06-19T00:03:33;95255.88;;;16.27;100.00
40245;BME280;25963;42.694;23.600;2023-06-19T00:05:59;95253.47;;;16.25;100.00
40245;BME280;25963;42.694;23.600;2023-06-19T00:08:24;95242.34;;;16.28;100.00
40245;BME280;25963;42.694;23.600;2023-06-19T00:10:50;95238.66;;;16.34;100.00
40245;BME280;25963;42.694;23.600;2023-06-19T00:13:15;95237.59;;;16.35;100.00
40245;BME280;25963;42.694;23.600;2023-06-19T00:15:41;95238.03;;;16.27;100.00
40245;BME280;25963;42.694;23.600;2023-06-19T00:18:06;95230.06;;;16.27;100.00
40245;BME280;25963;42.694;23.600;2023-06-19T00:20:32;95230.13;;;16.32;100.00
40245;BME280;25963;42.694;23.600;2023-06-19T00:22:58;95239.88;;;16.22;100.00
40245;BME280;25963;42.694;23.600;2023-06-19T00:25:23;95240.69;;;16.22;100.00
40245;BME280;25963;42.694;23.600;2023-06-19T00:27:48;95247.59;;;16.23;100.00
40245;BME280;25963;42.694;23.600;2023-06-19T00:30:15;95246.00;;;16.22;100.00
40245;BME280;25963;42.694;23.600;2023-06-19T00:32:40;95227.75;;;16.09;100.00
40245;BME280;25963;42.694;23.600;2023-06-19T00:35:17;95256.03;;;16.15;100.00
40245;BME280;25963;42.694;23.600;2023-06-19T00:37:43;95243.34;;;16.00;100.00
40245;BME280;25963;42.694;23.600;2023-06-19T00:40:17;95251.31;;;16.00;100.00
40245;BME280;25963;42.694;23.600;2023-06-19T00:42:44;95247.34;;;15.97;100.00
40245;BME280;25963;42.694;23.600;2023-06-19T00:45:10;95248.38;;;15.96;100.00
40245;BME280;25963;42.694;23.600;2023-06-19T00:47:36;95259.50;;;15.93;100.00
40245;BME280;25963;42.694;23.600;2023-06-19T00:50:01;95253.59;;;15.86;100.00
40245;BME280;25963;42.694;23.600;2023-06-19T00:52:26;95249.50;;;15.79;100.00
40245;BME280;25963;42.694;23.600;2023-06-19T00:54:52;95252.91;;;15.74;100.00
40245;BME280;25963;42.694;23.600;2023-06-19T00:57:18;95245.25;;;15.61;100.00
40245;BME280;25963;42.694;23.600;2023-06-19T00:59:44;95245.19;;;15.56;100.00
40245;BME280;25963;42.694;23.600;2023-06-19T01:02:09;95246.72;;;15.51;100.00
40245;BME280;25963;42.694;23.600;2023-06-19T01:04:35;95242.97;;;15.47;100.00
40245;BME280;25963;42.694;23.600;2023-06-19T01:07:08;95243.38;;;15.39;100.00
40245;BME280;25963;42.694;23.600;2023-06-19T01:09:42;95242.25;;;15.35;100.00
40245;BME280;25963;42.694;23.600;2023-06-19T01:12:15;95238.72;;;15.29;100.00
40245;BME280;25963;42.694;23.600;2023-06-19T01:15:02;95241.69;;;15.33;100.00
40245;BME280;25963;42.694;23.600;2023-06-19T01:17:28;95214.34;;;15.16;100.00
40245;BME280;25963;42.694;23.600;2023-06-19T01:19:58;95238.56;;;15.19;100.00
40245;BME280;25963;42.694;23.600;2023-06-19T01:22:28;95236.88;;;15.13;100.00
40245;BME280;25963;42.694;23.600;2023-06-19T01:24:53;95227.56;;;15.11;100.00
40245;BME280;25963;42.694;23.600;2023-06-19T01:27:19;95229.09;;;15.06;100.00
40245;BME280;25963;42.694;23.600;2023-06-19T01:29:45;95221.53;;;14.98;100.00
40245;BME280;25963;42.694;23.600;2023-06-19T01:32:15;95222.75;;;14.91;100.00
40245;BME280;25963;42.694;23.600;2023-06-19T01:34:41;95228.28;;;14.89;100.00
40245;BME280;25963;42.694;23.600;2023-06-19T01:37:09;95215.09;;;14.77;100.00
40245;BME280;25963;42.694;23.600;2023-06-19T01:39:36;95233.13;;;14.92;100.00
40245;BME280;25963;42.694;23.600;2023-06-19T01:42:02;95240.47;;;14.85;100.00
40245;BME280;25963;42.694;23.600;2023-06-19T01:44:29;95224.91;;;14.77;100.00
40245;BME280;25963;42.694;23.600;2023-06-19T01:46:55;95230.16;;;14.72;100.00
40245;BME280;25963;42.694;23.600;2023-06-19T01:49:20;95222.34;;;14.82;100.00
40245;BME280;25963;42.694;23.600;2023-06-19T01:51:46;95233.28;;;14.86;100.00
40245;BME280;25963;42.694;23.600;2023-06-19T01:54:11;95230.91;;;14.84;100.00
40245;BME280;25963;42.694;23.600;2023-06-19T01:56:37;95237.31;;;14.88;100.00
40245;BME280;25963;42.694;23.600;2023-06-19T01:59:03;95238.69;;;14.91;100.00
40245;BME280;25963;42.694;23.600;2023-06-19T02:01:28;95238.53;;;14.64;100.00
40245;BME280;25963;42.694;23.600;2023-06-19T02:03:54;95239.72;;;14.73;100.00
40245;BME280;25963;42.694;23.600;2023-06-19T02:06:19;95240.69;;;14.67;100.00
40245;BME280;25963;42.694;23.600;2023-06-19T02:08:47;95251.81;;;14.64;100.00
40245;BME280;25963;42.694;23.600;2023-06-19T02:11:12;95244.31;;;14.77;100.00
40245;BME280;25963;42.694;23.600;2023-06-19T02:13:38;95247.63;;;14.84;100.00
40245;BME280;25963;42.694;23.600;2023-06-19T02:16:03;95249.53;;;14.89;100.00
40245;BME280;25963;42.694;23.600;2023-06-19T02:18:29;95259.53;;;14.82;100.00
40245;BME280;25963;42.694;23.600;2023-06-19T02:20:54;95252.19;;;14.89;100.00
40245;BME280;25963;42.694;23.600;2023-06-19T02:23:20;95252.59;;;14.98;100.00
40245;BME280;25963;42.694;23.600;2023-06-19T02:25:45;95235.31;;;14.78;100.00
40245;BME280;25963;42.694;23.600;2023-06-19T02:28:11;95251.16;;;14.90;100.00
40245;BME280;25963;42.694;23.600;2023-06-19T02:30:36;95261.94;;;15.00;100.00
40245;BME280;25963;42.694;23.600;2023-06-19T02:33:01;95257.19;;;15.02;100.00
40245;BME280;25963;42.694;23.600;2023-06-19T02:35:27;95250.91;;;15.09;100.00
40245;BME280;25963;42.694;23.600;2023-06-19T02:37:52;95263.13;;;15.10;100.00
40245;BME280;25963;42.694;23.600;2023-06-19T02:40:18;95266.09;;;15.13;100.00
40245;BME280;25963;42.694;23.600;2023-06-19T02:42:44;95258.72;;;15.15;100.00
40245;BME280;25963;42.694;23.600;2023-06-19T02:45:09;95258.88;;;15.09;100.00
40245;BME280;25963;42.694;23.600;2023-06-19T02:47:35;95268.94;;;15.06;100.00
40245;BME280;25963;42.694;23.600;2023-06-19T02:50:03;95265.16;;;15.02;100.00
40245;BME280;25963;42.694;23.600;2023-06-19T02:52:29;95273.38;;;15.01;100.00
40245;BME280;25963;42.694;23.600;2023-06-19T02:54:55;95272.16;;;14.92;100.00
40245;BME280;25963;42.694;23.600;2023-06-19T02:57:20;95279.31;;;14.91;100.00
40245;BME280;25963;42.694;23.600;2023-06-19T02:59:46;95275.56;;;14.87;100.00
40245;BME280;25963;42.694;23.600;2023-06-19T03:02:11;95282.38;;;14.83;100.00
40245;BME280;25963;42.694;23.600;2023-06-19T03:04:37;95277.06;;;14.83;100.00
40245;BME280;25963;42.694;23.600;2023-06-19T03:07:03;95279.31;;;14.74;100.00
40245;BME280;25963;42.694;23.600;2023-06-19T03:09:28;95262.09;;;14.60;100.00
40245;BME280;25963;42.694;23.600;2023-06-19T03:11:54;95284.41;;;14.76;100.00
40245;BME280;25963;42.694;23.600;2023-06-19T03:14:20;95278.19;;;14.70;100.00
40245;BME280;25963;42.694;23.600;2023-06-19T03:16:45;95283.81;;;14.74;100.00
40245;BME280;25963;42.694;23.600;2023-06-19T03:19:10;95282.22;;;14.73;100.00
40245;BME280;25963;42.694;23.600;2023-06-19T03:21:36;95280.44;;;14.61;100.00
40245;BME280;25963;42.694;23.600;2023-06-19T03:24:02;95275.88;;;14.45;100.00
40245;BME280;25963;42.694;23.600;2023-06-19T03:26:27;95275.69;;;14.64;100.00
40245;BME280;25963;42.694;23.600;2023-06-19T03:28:52;95276.59;;;14.86;100.00
40245;BME280;25963;42.694;23.600;2023-06-19T03:31:18;95267.09;;;15.07;100.00
40245;BME280;25963;42.694;23.600;2023-06-19T03:33:43;95274.88;;;15.30;100.00
40245;BME280;25963;42.694;23.600;2023-06-19T03:36:09;95255.59;;;15.40;100.00
40245;BME280;25963;42.694;23.600;2023-06-19T03:38:34;95276.66;;;15.64;100.00
40245;BME280;25963;42.694;23.600;2023-06-19T03:41:00;95286.47;;;16.02;100.00
40245;BME280;25963;42.694;23.600;2023-06-19T03:43:26;95282.78;;;16.30;100.00
40245;BME280;25963;42.694;23.600;2023-06-19T03:45:51;95279.66;;;16.60;100.00
40245;BME280;25963;42.694;23.600;2023-06-19T03:48:17;95288.97;;;17.17;100.00
40245;BME280;25963;42.694;23.600;2023-06-19T03:50:43;95296.75;;;17.66;100.00
40245;BME280;25963;42.694;23.600;2023-06-19T03:53:08;95296.69;;;18.03;100.00
40245;BME280;25963;42.694;23.600;2023-06-19T03:55:34;95301.91;;;18.51;100.00
40245;BME280;25963;42.694;23.600;2023-06-19T03:57:59;95300.41;;;19.16;100.00
40245;BME280;25963;42.694;23.600;2023-06-19T04:00:25;95303.56;;;19.85;100.00
40245;BME280;25963;42.694;23.600;2023-06-19T04:02:50;95298.00;;;20.41;100.00
40245;BME280;25963;42.694;23.600;2023-06-19T04:05:17;95285.97;;;20.88;100.00
40245;BME280;25963;42.694;23.600;2023-06-19T04:07:43;95297.19;;;21.59;100.00
40245;BME280;25963;42.694;23.600;2023-06-19T04:10:09;95296.44;;;22.30;100.00
40245;BME280;25963;42.694;23.600;2023-06-19T04:12:36;95291.53;;;22.75;100.00
40245;BME280;25963;42.694;23.600;2023-06-19T04:15:02;95291.34;;;23.23;100.00
40245;BME280;25963;42.694;23.600;2023-06-19T04:17:27;95286.63;;;23.48;100.00
40245;BME280;25963;42.694;23.600;2023-06-19T04:19:53;95281.34;;;24.03;100.00
40245;BME280;25963;42.694;23.600;2023-06-19T04:22:18;95278.94;;;24.57;100.00
40245;BME280;25963;42.694;23.600;2023-06-19T04:24:44;95280.94;;;24.88;100.00
40245;BME280;25963;42.694;23.600;2023-06-19T04:27:09;95273.34;;;25.12;100.00
40245;BME280;25963;42.694;23.600;2023-06-19T04:29:34;95276.59;;;25.45;99.77
40245;BME280;25963;42.694;23.600;2023-06-19T04:32:01;95275.63;;;25.72;95.19
40245;BME280;25963;42.694;23.600;2023-06-19T04:34:28;95265.34;;;26.14;92.24
40245;BME280;25963;42.694;23.600;2023-06-19T04:36:54;95263.88;;;26.57;86.40
40245;BME280;25963;42.694;23.600;2023-06-19T04:39:23;95266.94;;;26.99;78.76
40245;BME280;25963;42.694;23.600;2023-06-19T04:41:49;95258.78;;;27.34;76.03
40245;BME280;25963;42.694;23.600;2023-06-19T04:44:14;95262.13;;;27.39;70.62
40245;BME280;25963;42.694;23.600;2023-06-19T04:46:40;95270.69;;;27.67;69.03
40245;BME280;25963;42.694;23.600;2023-06-19T04:49:06;95265.72;;;27.61;66.37
40245;BME280;25963;42.694;23.600;2023-06-19T04:51:32;95271.91;;;27.87;64.18
40245;BME280;25963;42.694;23.600;2023-06-19T04:54:01;95267.31;;;27.79;62.52
40245;BME280;25963;42.694;23.600;2023-06-19T04:56:26;95264.03;;;28.03;63.41
40245;BME280;25963;42.694;23.600;2023-06-19T04:58:52;95261.91;;;28.47;63.23
40245;BME280;25963;42.694;23.600;2023-06-19T05:01:21;95263.41;;;28.57;57.76
40245;BME280;25963;42.694;23.600;2023-06-19T05:03:52;95263.84;;;28.38;55.15
40245;BME280;25963;42.694;23.600;2023-06-19T05:06:18;95266.63;;;28.20;61.59
40245;BME280;25963;42.694;23.600;2023-06-19T05:08:43;95263.22;;;28.32;63.38
40245;BME280;25963;42.694;23.600;2023-06-19T05:11:09;95262.75;;;28.01;61.18
40245;BME280;25963;42.694;23.600;2023-06-19T05:13:34;95224.84;;;27.92;59.14
40245;BME280;25963;42.694;23.600;2023-06-19T05:16:00;95263.63;;;28.22;62.36
40245;BME280;25963;42.694;23.600;2023-06-19T05:18:25;95253.38;;;28.28;58.91
40245;BME280;25963;42.694;23.600;2023-06-19T05:20:51;95261.09;;;28.47;57.67
40245;BME280;25963;42.694;23.600;2023-06-19T05:23:16;95254.72;;;28.51;59.11
40245;BME280;25963;42.694;23.600;2023-06-19T05:25:41;95268.06;;;28.56;58.63
40245;BME280;25963;42.694;23.600;2023-06-19T05:28:08;95265.94;;;28.62;55.34
40245;BME280;25963;42.694;23.600;2023-06-19T05:30:34;95270.47;;;28.79;56.25
40245;BME280;25963;42.694;23.600;2023-06-19T05:33:00;95263.31;;;28.95;57.09
40245;BME280;25963;42.694;23.600;2023-06-19T05:38:01;95263.53;;;28.69;58.28
40245;BME280;25963;42.694;23.600;2023-06-19T05:40:26;95277.41;;;28.67;55.16
40245;BME280;25963;42.694;23.600;2023-06-19T05:42:53;95281.31;;;28.58;57.85
40245;BME280;25963;42.694;23.600;2023-06-19T05:45:20;95286.44;;;28.51;58.55
40245;BME280;25963;42.694;23.600;2023-06-19T05:47:46;95278.31;;;28.21;58.90
40245;BME280;25963;42.694;23.600;2023-06-19T05:50:11;95292.53;;;28.39;57.52
40245;BME280;25963;42.694;23.600;2023-06-19T05:52:37;95288.41;;;28.41;56.61
40245;BME280;25963;42.694;23.600;2023-06-19T05:55:07;95295.09;;;28.44;58.53
40245;BME280;25963;42.694;23.600;2023-06-19T05:57:32;95294.13;;;28.49;56.36
40245;BME280;25963;42.694;23.600;2023-06-19T05:59:58;95291.22;;;28.54;54.99
40245;BME280;25963;42.694;23.600;2023-06-19T06:02:24;95290.66;;;28.39;54.28
40245;BME280;25963;42.694;23.600;2023-06-19T06:04:49;95289.38;;;28.37;55.59
40245;BME280;25963;42.694;23.600;2023-06-19T06:07:14;95289.38;;;28.07;56.30
40245;BME280;25963;42.694;23.600;2023-06-19T06:09:40;95285.19;;;28.18;58.61
40245;BME280;25963;42.694;23.600;2023-06-19T06:12:06;95286.56;;;28.25;56.58
40245;BME280;25963;42.694;23.600;2023-06-19T06:14:31;95288.91;;;28.35;55.65
40245;BME280;25963;42.694;23.600;2023-06-19T06:16:57;95279.06;;;27.92;56.28
40245;BME280;25963;42.694;23.600;2023-06-19T06:19:22;95293.28;;;28.27;57.43
40245;BME280;25963;42.694;23.600;2023-06-19T06:21:49;95293.72;;;27.91;54.90
40245;BME280;25963;42.694;23.600;2023-06-19T06:24:14;95293.78;;;27.82;60.59
40245;BME280;25963;42.694;23.600;2023-06-19T06:26:40;95297.84;;;27.97;59.82
40245;BME280;25963;42.694;23.600;2023-06-19T06:29:05;95297.91;;;27.71;55.29
40245;BME280;25963;42.694;23.600;2023-06-19T06:31:30;95299.22;;;27.65;59.70
40245;BME280;25963;42.694;23.600;2023-06-19T06:33:56;95291.53;;;27.67;59.29
40245;BME280;25963;42.694;23.600;2023-06-19T06:36:21;95298.41;;;27.64;57.99
40245;BME280;25963;42.694;23.600;2023-06-19T06:38:47;95296.84;;;27.46;59.48
40245;BME280;25963;42.694;23.600;2023-06-19T06:41:12;95295.91;;;27.42;57.50
40245;BME280;25963;42.694;23.600;2023-06-19T06:43:39;95295.91;;;27.42;60.12
40245;BME280;25963;42.694;23.600;2023-06-19T06:46:07;95284.09;;;26.85;60.63
40245;BME280;25963;42.694;23.600;2023-06-19T06:48:33;95301.44;;;26.67;63.29
40245;BME280;25963;42.694;23.600;2023-06-19T06:50:58;95291.75;;;27.01;66.96
40245;BME280;25963;42.694;23.600;2023-06-19T06:53:27;95297.97;;;26.75;61.63
40245;BME280;25963;42.694;23.600;2023-06-19T06:55:58;95301.63;;;26.79;65.27
40245;BME280;25963;42.694;23.600;2023-06-19T06:58:24;95305.63;;;26.99;65.07
40245;BME280;25963;42.694;23.600;2023-06-19T07:00:50;95304.72;;;26.47;63.07
40245;BME280;25963;42.694;23.600;2023-06-19T07:03:16;95317.41;;;26.37;65.63
40245;BME280;25963;42.694;23.600;2023-06-19T07:05:43;95308.38;;;26.42;68.43
40245;BME280;25963;42.694;23.600;2023-06-19T07:08:08;95305.56;;;26.64;67.87
40245;BME280;25963;42.694;23.600;2023-06-19T07:10:33;95314.56;;;26.42;66.49
40245;BME280;25963;42.694;23.600;2023-06-19T07:15:34;95290.41;;;26.46;68.84
40245;BME280;25963;42.694;23.600;2023-06-19T07:18:00;95289.22;;;26.96;74.71
40245;BME280;25963;42.694;23.600;2023-06-19T07:20:25;95258.31;;;26.97;72.42
40245;BME280;25963;42.694;23.600;2023-06-19T07:22:52;95297.81;;;26.98;68.47
40245;BME280;25963;42.694;23.600;2023-06-19T07:25:18;95290.47;;;27.07;67.45
40245;BME280;25963;42.694;23.600;2023-06-19T07:27:43;95290.66;;;27.28;69.45
40245;BME280;25963;42.694;23.600;2023-06-19T07:30:09;95292.41;;;27.33;64.95
40245;BME280;25963;42.694;23.600;2023-06-19T07:32:36;95296.84;;;26.76;64.73
40245;BME280;25963;42.694;23.600;2023-06-19T07:35:03;95303.53;;;26.88;63.65
40245;BME280;25963;42.694;23.600;2023-06-19T07:37:28;95281.75;;;26.84;69.19
40245;BME280;25963;42.694;23.600;2023-06-19T07:39:54;95309.09;;;26.91;64.88
40245;BME280;25963;42.694;23.600;2023-06-19T07:42:19;95295.25;;;26.75;67.30
40245;BME280;25963;42.694;23.600;2023-06-19T07:44:45;95277.56;;;27.13;62.81
40245;BME280;25963;42.694;23.600;2023-06-19T07:47:11;95283.63;;;27.09;60.51
40245;BME280;25963;42.694;23.600;2023-06-19T07:49:37;95291.91;;;27.13;60.20
40245;BME280;25963;42.694;23.600;2023-06-19T07:52:03;95278.41;;;26.96;61.60
40245;BME280;25963;42.694;23.600;2023-06-19T07:54:29;95282.69;;;26.97;61.17
40245;BME280;25963;42.694;23.600;2023-06-19T07:56:55;95269.47;;;26.69;59.11
40245;BME280;25963;42.694;23.600;2023-06-19T07:59:21;95289.66;;;26.54;62.98
40245;BME280;25963;42.694;23.600;2023-06-19T08:01:48;95285.06;;;27.07;63.90
40245;BME280;25963;42.694;23.600;2023-06-19T08:04:13;95269.16;;;27.14;60.27
40245;BME280;25963;42.694;23.600;2023-06-19T08:06:39;95267.88;;;27.03;56.19
40245;BME280;25963;42.694;23.600;2023-06-19T08:09:04;95282.69;;;26.88;56.83
40245;BME280;25963;42.694;23.600;2023-06-19T08:11:30;95285.69;;;27.13;59.46
40245;BME280;25963;42.694;23.600;2023-06-19T08:13:55;95292.72;;;26.88;53.62
40245;BME280;25963;42.694;23.600;2023-06-19T08:16:21;95280.78;;;27.32;56.09
40245;BME280;25963;42.694;23.600;2023-06-19T08:18:46;95285.81;;;27.60;62.33
40245;BME280;25963;42.694;23.600;2023-06-19T08:21:12;95295.09;;;27.59;61.77
40245;BME280;25963;42.694;23.600;2023-06-19T08:23:38;95290.59;;;27.63;61.57
40245;BME280;25963;42.694;23.600;2023-06-19T08:26:04;95278.19;;;27.62;51.08
40245;BME280;25963;42.694;23.600;2023-06-19T08:28:33;95279.84;;;27.92;56.50
40245;BME280;25963;42.694;23.600;2023-06-19T08:30:58;95287.56;;;27.64;54.76
40245;BME280;25963;42.694;23.600;2023-06-19T08:33:24;95290.97;;;27.44;52.54
40245;BME280;25963;42.694;23.600;2023-06-19T08:35:49;95280.31;;;27.30;57.45
40245;BME280;25963;42.694;23.600;2023-06-19T08:38:15;95292.63;;;27.74;59.87
40245;BME280;25963;42.694;23.600;2023-06-19T08:40:43;95295.09;;;27.59;56.17
40245;BME280;25963;42.694;23.600;2023-06-19T08:43:09;95273.16;;;27.25;50.24
40245;BME280;25963;42.694;23.600;2023-06-19T08:45:35;95283.63;;;27.53;57.50
40245;BME280;25963;42.694;23.600;2023-06-19T08:48:01;95291.44;;;27.11;53.19
40245;BME280;25963;42.694;23.600;2023-06-19T08:50:31;95287.78;;;27.42;57.49
40245;BME280;25963;42.694;23.600;2023-06-19T08:52:57;95289.94;;;27.66;57.97
40245;BME280;25963;42.694;23.600;2023-06-19T08:55:23;95286.31;;;27.53;56.62
40245;BME280;25963;42.694;23.600;2023-06-19T08:57:49;95292.41;;;27.33;60.07
40245;BME280;25963;42.694;23.600;2023-06-19T09:00:26;95276.75;;;27.56;63.12
40245;BME280;25963;42.694;23.600;2023-06-19T09:02:52;95292.34;;;27.67;59.38
40245;BME280;25963;42.694;23.600;2023-06-19T09:05:23;95269.63;;;27.98;55.84
40245;BME280;25963;42.694;23.600;2023-06-19T09:07:59;95278.56;;;27.98;55.95
40245;BME280;25963;42.694;23.600;2023-06-19T09:10:26;95272.81;;;28.00;61.42
40245;BME280;25963;42.694;23.600;2023-06-19T09:13:03;95275.44;;;27.70;52.37
40245;BME280;25963;42.694;23.600;2023-06-19T09:15:34;95271.94;;;28.17;55.46
40245;BME280;25963;42.694;23.600;2023-06-19T09:18:08;95283.00;;;28.03;57.41
40245;BME280;25963;42.694;23.600;2023-06-19T09:20:37;95280.94;;;28.30;63.52
40245;BME280;25963;42.694;23.600;2023-06-19T09:23:04;95274.63;;;28.55;55.57
40245;BME280;25963;42.694;23.600;2023-06-19T09:25:30;95268.94;;;28.69;55.59
40245;BME280;25963;42.694;23.600;2023-06-19T09:39:48;95273.88;;;28.46;54.60
40245;BME280;25963;42.694;23.600;2023-06-19T09:42:17;95273.31;;;28.61;52.54
40245;BME280;25963;42.694;23.600;2023-06-19T09:44:47;95268.34;;;28.63;51.46
40245;BME280;25963;42.694;23.600;2023-06-19T09:47:16;95267.88;;;28.82;59.45
40245;BME280;25963;42.694;23.600;2023-06-19T09:49:48;95266.22;;;28.48;56.54
40245;BME280;25963;42.694;23.600;2023-06-19T09:52:15;95269.13;;;28.43;57.48
40245;BME280;25963;42.694;23.600;2023-06-19T09:54:41;95271.81;;;28.43;53.57
40245;BME280;25963;42.694;23.600;2023-06-19T09:57:10;95266.63;;;28.80;55.10
40245;BME280;25963;42.694;23.600;2023-06-19T09:59:37;95260.47;;;28.71;50.44
40245;BME280;25963;42.694;23.600;2023-06-19T10:02:04;95250.63;;;28.87;53.99
40245;BME280;25963;42.694;23.600;2023-06-19T10:04:45;95270.28;;;28.63;53.18
40245;BME280;25963;42.694;23.600;2023-06-19T10:07:21;95261.47;;;28.87;48.51
40245;BME280;25963;42.694;23.600;2023-06-19T10:10:31;95259.19;;;28.89;49.83
40245;BME280;25963;42.694;23.600;2023-06-19T10:12:50;95256.38;;;29.06;51.93
40245;BME280;25963;42.694;23.600;2023-06-19T10:15:23;95248.91;;;29.03;51.97
40245;BME280;25963;42.694;23.600;2023-06-19T10:17:50;95248.09;;;28.82;48.90
40245;BME280;25963;42.694;23.600;2023-06-19T10:20:35;95244.25;;;28.83;52.34
40245;BME280;25963;42.694;23.600;2023-06-19T10:23:17;95242.38;;;28.75;53.47
40245;BME280;25963;42.694;23.600;2023-06-19T10:25:45;95242.53;;;28.99;50.46
40245;BME280;25963;42.694;23.600;2023-06-19T10:28:19;95218.75;;;29.17;54.07
40245;BME280;25963;42.694;23.600;2023-06-19T10:30:45;95229.69;;;29.42;50.86
40245;BME280;25963;42.694;23.600;2023-06-19T10:33:10;95235.88;;;29.88;51.71
40245;BME280;25963;42.694;23.600;2023-06-19T10:35:40;95240.91;;;29.98;49.21
40245;BME280;25963;42.694;23.600;2023-06-19T10:38:09;95240.75;;;29.03;51.46
40245;BME280;25963;42.694;23.600;2023-06-19T10:40:38;95235.00;;;29.05;45.78
40245;BME280;25963;42.694;23.600;2023-06-19T10:43:04;95223.72;;;29.15;49.70
40245;BME280;25963;42.694;23.600;2023-06-19T10:45:30;95215.47;;;29.24;50.06
40245;BME280;25963;42.694;23.600;2023-06-19T10:47:55;95237.06;;;29.53;53.51
40245;BME280;25963;42.694;23.600;2023-06-19T10:50:22;95221.03;;;29.73;50.17
40245;BME280;25963;42.694;23.600;2023-06-19T10:52:48;95218.47;;;30.13;47.64
40245;BME280;25963;42.694;23.600;2023-06-19T10:55:17;95201.09;;;30.18;48.36
40245;BME280;25963;42.694;23.600;2023-06-19T10:57:46;95206.34;;;29.98;46.41
40245;BME280;25963;42.694;23.600;2023-06-19T11:00:25;95223.66;;;29.82;45.50
40245;BME280;25963;42.694;23.600;2023-06-19T11:02:51;95218.69;;;30.20;49.93
40245;BME280;25963;42.694;23.600;2023-06-19T11:05:19;95228.09;;;30.11;49.18
40245;BME280;25963;42.694;23.600;2023-06-19T11:07:53;95227.88;;;30.03;48.69
40245;BME280;25963;42.694;23.600;2023-06-19T11:10:25;95221.81;;;29.73;47.39
40245;BME280;25963;42.694;23.600;2023-06-19T11:12:55;95219.03;;;30.07;47.95
40245;BME280;25963;42.694;23.600;2023-06-19T11:15:34;95209.94;;;30.39;47.01
40245;BME280;25963;42.694;23.600;2023-06-19T11:18:01;95224.38;;;30.28;50.73
40245;BME280;25963;42.694;23.600;2023-06-19T11:20:28;95218.13;;;30.27;44.54
40245;BME280;25963;42.694;23.600;2023-06-19T11:23:00;95216.28;;;29.94;47.38
40245;BME280;25963;42.694;23.600;2023-06-19T11:25:40;95206.56;;;29.81;50.02
40245;BME280;25963;42.694;23.600;2023-06-19T11:28:13;95209.94;;;30.02;45.29
40245;BME280;25963;42.694;23.600;2023-06-19T11:30:39;95202.47;;;30.48;47.61
40245;BME280;25963;42.694;23.600;2023-06-19T11:33:16;95204.56;;;30.67;48.65
40245;BME280;25963;42.694;23.600;2023-06-19T11:35:47;95195.97;;;30.53;44.72
40245;BME280;25963;42.694;23.600;2023-06-19T11:38:24;95183.41;;;30.48;45.53
40245;BME280;25963;42.694;23.600;2023-06-19T11:40:50;95201.03;;;30.79;48.21
40245;BME280;25963;42.694;23.600;2023-06-19T11:43:29;95200.56;;;31.33;46.06
40245;BME280;25963;42.694;23.600;2023-06-19T11:46:02;95201.94;;;31.11;41.02
40245;BME280;25963;42.694;23.600;2023-06-19T11:48:28;95209.16;;;30.91;42.21
40245;BME280;25963;42.694;23.600;2023-06-19T11:50:53;95197.13;;;30.92;44.46
40245;BME280;25963;42.694;23.600;2023-06-19T11:53:20;95182.69;;;30.64;42.09
40245;BME280;25963;42.694;23.600;2023-06-19T11:55:45;95192.22;;;30.58;46.97
40245;BME280;25963;42.694;23.600;2023-06-19T11:58:11;95185.25;;;30.85;43.89
40245;BME280;25963;42.694;23.600;2023-06-19T12:00:37;95190.72;;;30.60;43.49
40245;BME280;25963;42.694;23.600;2023-06-19T12:03:11;95179.31;;;30.95;45.97
40245;BME280;25963;42.694;23.600;2023-06-19T12:05:56;95183.44;;;31.05;48.00
40245;BME280;25963;42.694;23.600;2023-06-19T12:08:21;95186.16;;;31.05;42.11
40245;BME280;25963;42.694;23.600;2023-06-19T12:10:48;95198.28;;;30.39;40.78
40245;BME280;25963;42.694;23.600;2023-06-19T12:13:13;95179.53;;;30.50;44.01
40245;BME280;25963;42.694;23.600;2023-06-19T12:15:38;95181.84;;;30.35;42.17
40245;BME280;25963;42.694;23.600;2023-06-19T12:18:04;95177.19;;;30.36;43.86
40245;BME280;25963;42.694;23.600;2023-06-19T12:20:32;95179.50;;;30.62;43.06
40245;BME280;25963;42.694;23.600;2023-06-19T12:22:57;95174.50;;;31.04;39.90
40245;BME280;25963;42.694;23.600;2023-06-19T12:25:22;95186.03;;;30.33;44.67
40245;BME280;25963;42.694;23.600;2023-06-19T12:27:48;95176.13;;;30.53;46.26
40245;BME280;25963;42.694;23.600;2023-06-19T12:30:16;95168.38;;;30.79;41.28
40245;BME280;25963;42.694;23.600;2023-06-19T12:32:42;95174.78;;;31.15;47.91
40245;BME280;25963;42.694;23.600;2023-06-19T12:35:07;95169.19;;;30.67;40.97
40245;BME280;25963;42.694;23.600;2023-06-19T12:37:33;95175.41;;;30.68;40.17
40245;BME280;25963;42.694;23.600;2023-06-19T12:39:58;95175.25;;;30.48;38.16
40245;BME280;25963;42.694;23.600;2023-06-19T12:42:24;95179.31;;;30.55;43.24
40245;BME280;25963;42.694;23.600;2023-06-19T12:44:49;95164.63;;;30.31;43.15
40245;BME280;25963;42.694;23.600;2023-06-19T12:47:15;95154.91;;;29.69;42.77
40245;BME280;25963;42.694;23.600;2023-06-19T12:49:43;95175.03;;;29.10;42.87
40245;BME280;25963;42.694;23.600;2023-06-19T12:52:08;95174.19;;;28.97;43.33
40245;BME280;25963;42.694;23.600;2023-06-19T12:54:34;95176.22;;;28.67;42.37
40245;BME280;25963;42.694;23.600;2023-06-19T12:57:00;95181.53;;;28.34;42.22
40245;BME280;25963;42.694;23.600;2023-06-19T12:59:26;95180.81;;;28.25;41.49
40245;BME280;25963;42.694;23.600;2023-06-19T13:01:51;95170.63;;;28.84;46.32